sensor_id;sensor_type;location;lat;lon;timestamp;temperature;humidity
11619;DHT22;5865;48.776;9.280;2023-11-18T00:16:24;3.90;99.90
11619;DHT22;5865;48.776;9.280;2023-11-18T00:56:31;4.60;99.90
11619;DHT22;5865;48.776;9.280;2023-11-18T01:03:59;4.80;99.90
11619;DHT22;5865;48.776;9.280;2023-11-18T01:11:33;4.90;99.90
11619;DHT22;5865;48.776;9.280;2023-11-18T01:49:07;5.10;99.90
11619;DHT22;5865;48.776;9.280;2023-11-18T02:01:01;5.10;99.90
11619;DHT22;5865;48.776;9.280;2023-11-18T02:11:37;5.10;99.90
11619;DHT22;5865;48.776;9.280;2023-11-18T02:14:17;5.10;99.90
11619;DHT22;5865;48.776;9.280;2023-11-18T02:32:20;5.10;99.90
11619;DHT22;5865;48.776;9.280;2023-11-18T02:35:10;5.20;99.90
11619;DHT22;5865;48.776;9.280;2023-11-18T02:37:53;5.20;99.90
11619;DHT22;5865;48.776;9.280;2023-11-18T02:40:36;5.20;99.90
11619;DHT22;5865;48.776;9.280;2023-11-18T02:45:57;5.10;99.90
11619;DHT22;5865;48.776;9.280;2023-11-18T02:49:07;5.10;99.90
11619;DHT22;5865;48.776;9.280;2023-11-18T03:31:05;4.60;99.90
11619;DHT22;5865;48.776;9.280;2023-11-18T03:39:09;4.50;99.90
11619;DHT22;5865;48.776;9.280;2023-11-18T04:13:22;4.90;99.90
11619;DHT22;5865;48.776;9.280;2023-11-18T04:55:31;4.40;99.90
11619;DHT22;5865;48.776;9.280;2023-11-18T05:43:36;3.50;99.90
11619;DHT22;5865;48.776;9.280;2023-11-18T05:49:02;3.50;99.90
11619;DHT22;5865;48.776;9.280;2023-11-18T06:09:52;2.90;99.90
11619;DHT22;5865;48.776;9.280;2023-11-18T06:26:19;2.10;99.90
11619;DHT22;5865;48.776;9.280;2023-11-18T06:58:56;2.10;99.90
11619;DHT22;5865;48.776;9.280;2023-11-18T07:21:29;3.00;99.90
11619;DHT22;5865;48.776;9.280;2023-11-18T07:27:01;3.30;99.90
11619;DHT22;5865;48.776;9.280;2023-11-18T07:29:31;3.30;99.90
11619;DHT22;5865;48.776;9.280;2023-11-18T07:31:58;3.40;99.90
11619;DHT22;5865;48.776;9.280;2023-11-18T07:34:31;3.50;99.90
11619;DHT22;5865;48.776;9.280;2023-11-18T07:36:59;3.50;99.90
11619;DHT22;5865;48.776;9.280;2023-11-18T07:39:27;3.70;99.90
11619;DHT22;5865;48.776;9.280;2023-11-18T07:42:10;3.80;99.90
11619;DHT22;5865;48.776;9.280;2023-11-18T07:44:38;4.10;99.90
11619;DHT22;5865;48.776;9.280;2023-11-18T07:47:05;4.20;99.90
11619;DHT22;5865;48.776;9.280;2023-11-18T07:49:34;4.30;99.90
11619;DHT22;5865;48.776;9.280;2023-11-18T07:52:03;4.40;99.90
11619;DHT22;5865;48.776;9.280;2023-11-18T07:54:30;4.60;99.90
11619;DHT22;5865;48.776;9.280;2023-11-18T07:56:57;4.70;99.90
11619;DHT22;5865;48.776;9.280;2023-11-18T07:59:24;4.90;99.90
11619;DHT22;5865;48.776;9.280;2023-11-18T08:26:51;5.60;99.90
11619;DHT22;5865;48.776;9.280;2023-11-18T08:34:15;5.60;99.90
11619;DHT22;5865;48.776;9.280;2023-11-18T08:41:46;5.80;99.90
11619;DHT22;5865;48.776;9.280;2023-11-18T08:51:47;6.10;99.90
11619;DHT22;5865;48.776;9.280;2023-11-18T09:04:22;6.60;99.90
11619;DHT22;5865;48.776;9.280;2023-11-18T09:09:20;6.60;99.90
11619;DHT22;5865;48.776;9.280;2023-11-18T09:11:53;6.80;99.90
11619;DHT22;5865;48.776;9.280;2023-11-18T09:14:26;6.80;99.90
11619;DHT22;5865;48.776;9.280;2023-11-18T09:24:20;6.80;99.90
11619;DHT22;5865;48.776;9.280;2023-11-18T09:26:50;6.80;99.90
11619;DHT22;5865;48.776;9.280;2023-11-18T09:36:53;7.60;99.90
11619;DHT22;5865;48.776;9.280;2023-11-18T09:39:20;7.90;99.90
11619;DHT22;5865;48.776;9.280;2023-11-18T09:42:05;8.40;99.90
11619;DHT22;5865;48.776;9.280;2023-11-18T09:47:08;8.60;99.90
11619;DHT22;5865;48.776;9.280;2023-11-18T09:49:42;7.80;99.90
11619;DHT22;5865;48.776;9.280;2023-11-18T09:52:16;7.90;99.90
11619;DHT22;5865;48.776;9.280;2023-11-18T09:54:53;8.00;99.90
11619;DHT22;5865;48.776;9.280;2023-11-18T09:57:29;7.80;99.90
11619;DHT22;5865;48.776;9.280;2023-11-18T10:00:01;7.80;99.90
11619;DHT22;5865;48.776;9.280;2023-11-18T10:02:39;8.20;99.90
11619;DHT22;5865;48.776;9.280;2023-11-18T10:05:07;8.20;99.90
11619;DHT22;5865;48.776;9.280;2023-11-18T10:07:39;8.60;99.90
11619;DHT22;5865;48.776;9.280;2023-11-18T10:10:08;8.70;99.90
11619;DHT22;5865;48.776;9.280;2023-11-18T10:15:12;8.60;99.90
11619;DHT22;5865;48.776;9.280;2023-11-18T10:23:05;8.30;99.90
11619;DHT22;5865;48.776;9.280;2023-11-18T10:25:35;8.40;99.90
11619;DHT22;5865;48.776;9.280;2023-11-18T10:30:43;9.00;99.90
11619;DHT22;5865;48.776;9.280;2023-11-18T10:33:15;9.10;99.90
11619;DHT22;5865;48.776;9.280;2023-11-18T10:35:51;9.20;99.90
11619;DHT22;5865;48.776;9.280;2023-11-18T10:38:21;9.10;99.90
11619;DHT22;5865;48.776;9.280;2023-11-18T10:40:52;9.00;99.90
11619;DHT22;5865;48.776;9.280;2023-11-18T10:43:21;9.20;99.90
11619;DHT22;5865;48.776;9.280;2023-11-18T10:45:51;9.10;99.90
11619;DHT22;5865;48.776;9.280;2023-11-18T10:53:18;8.80;99.90
11619;DHT22;5865;48.776;9.280;2023-11-18T10:58:16;9.30;99.90
11619;DHT22;5865;48.776;9.280;2023-11-18T11:00:48;9.50;99.90
11619;DHT22;5865;48.776;9.280;2023-11-18T11:05:51;9.30;99.90
11619;DHT22;5865;48.776;9.280;2023-11-18T11:15:50;9.80;99.90
11619;DHT22;5865;48.776;9.280;2023-11-18T11:18:20;9.80;99.90
11619;DHT22;5865;48.776;9.280;2023-11-18T11:21:14;9.70;99.90
11619;DHT22;5865;48.776;9.280;2023-11-18T11:23:50;9.60;99.90
11619;DHT22;5865;48.776;9.280;2023-11-18T11:26:26;9.60;99.90
11619;DHT22;5865;48.776;9.280;2023-11-18T11:29:01;9.50;99.90
11619;DHT22;5865;48.776;9.280;2023-11-18T11:31:33;9.10;99.90
11619;DHT22;5865;48.776;9.280;2023-11-18T11:34:04;9.30;99.90
11619;DHT22;5865;48.776;9.280;2023-11-18T11:36:44;9.60;99.90
11619;DHT22;5865;48.776;9.280;2023-11-18T11:41:54;9.50;99.90
11619;DHT22;5865;48.776;9.280;2023-11-18T11:46:56;9.30;99.90
11619;DHT22;5865;48.776;9.280;2023-11-18T11:49:27;9.50;99.90
11619;DHT22;5865;48.776;9.280;2023-11-18T11:52:04;9.20;99.90
11619;DHT22;5865;48.776;9.280;2023-11-18T11:59:54;9.30;99.90
11619;DHT22;5865;48.776;9.280;2023-11-18T12:02:26;9.10;99.90
11619;DHT22;5865;48.776;9.280;2023-11-18T12:15:48;9.50;99.90
11619;DHT22;5865;48.776;9.280;2023-11-18T12:26:38;9.40;99.90
11619;DHT22;5865;48.776;9.280;2023-11-18T12:29:32;9.40;99.90
11619;DHT22;5865;48.776;9.280;2023-11-18T12:34:50;9.10;99.90
11619;DHT22;5865;48.776;9.280;2023-11-18T12:37:41;9.20;99.90
11619;DHT22;5865;48.776;9.280;2023-11-18T12:40:48;9.40;99.90
11619;DHT22;5865;48.776;9.280;2023-11-18T12:49:16;9.00;99.90
11619;DHT22;5865;48.776;9.280;2023-11-18T13:44:59;8.30;99.90
11619;DHT22;5865;48.776;9.280;2023-11-18T14:21:53;8.70;99.90
11619;DHT22;5865;48.776;9.280;2023-11-18T14:24:20;8.70;99.90
11619;DHT22;5865;48.776;9.280;2023-11-18T14:26:48;8.80;99.90
11619;DHT22;5865;48.776;9.280;2023-11-18T14:29:16;8.80;99.90
11619;DHT22;5865;48.776;9.280;2023-11-18T14:31:44;8.70;99.90
11619;DHT22;5865;48.776;9.280;2023-11-18T14:34:11;8.60;99.90
11619;DHT22;5865;48.776;9.280;2023-11-18T14:36:39;8.50;99.90
11619;DHT22;5865;48.776;9.280;2023-11-18T14:39:08;8.50;99.90
11619;DHT22;5865;48.776;9.280;2023-11-18T14:41:38;8.40;99.90
11619;DHT22;5865;48.776;9.280;2023-11-18T14:44:06;8.30;99.90
11619;DHT22;5865;48.776;9.280;2023-11-18T14:46:35;8.30;99.90
11619;DHT22;5865;48.776;9.280;2023-11-18T14:49:04;8.20;99.90
11619;DHT22;5865;48.776;9.280;2023-11-18T14:51:31;8.10;99.90
11619;DHT22;5865;48.776;9.280;2023-11-18T14:53:58;8.10;99.90
11619;DHT22;5865;48.776;9.280;2023-11-18T14:56:26;8.10;99.90
11619;DHT22;5865;48.776;9.280;2023-11-18T14:58:53;8.10;99.90
11619;DHT22;5865;48.776;9.280;2023-11-18T15:01:20;8.00;99.90
11619;DHT22;5865;48.776;9.280;2023-11-18T15:03:48;8.00;99.90
11619;DHT22;5865;48.776;9.280;2023-11-18T15:06:14;7.90;99.90
11619;DHT22;5865;48.776;9.280;2023-11-18T15:08:50;7.90;99.90
11619;DHT22;5865;48.776;9.280;2023-11-18T15:11:21;7.90;99.90
11619;DHT22;5865;48.776;9.280;2023-11-18T15:13:50;7.90;99.90
11619;DHT22;5865;48.776;9.280;2023-11-18T15:16:18;7.90;99.90
11619;DHT22;5865;48.776;9.280;2023-11-18T15:18:45;7.80;99.90
11619;DHT22;5865;48.776;9.280;2023-11-18T15:21:13;7.70;99.90
11619;DHT22;5865;48.776;9.280;2023-11-18T15:23:40;7.80;99.90
11619;DHT22;5865;48.776;9.280;2023-11-18T15:26:08;7.70;99.90
11619;DHT22;5865;48.776;9.280;2023-11-18T15:28:35;7.70;99.90
11619;DHT22;5865;48.776;9.280;2023-11-18T15:31:04;7.70;99.90
11619;DHT22;5865;48.776;9.280;2023-11-18T15:33:31;7.70;99.90
11619;DHT22;5865;48.776;9.280;2023-11-18T15:35:58;7.60;99.90
11619;DHT22;5865;48.776;9.280;2023-11-18T15:38:25;7.60;99.90
11619;DHT22;5865;48.776;9.280;2023-11-18T15:40:52;7.60;99.90
11619;DHT22;5865;48.776;9.280;2023-11-18T15:43:19;7.70;99.90
11619;DHT22;5865;48.776;9.280;2023-11-18T15:45:47;7.60;99.90
11619;DHT22;5865;48.776;9.280;2023-11-18T15:48:15;7.60;99.90
11619;DHT22;5865;48.776;9.280;2023-11-18T15:50:42;7.60;99.90
11619;DHT22;5865;48.776;9.280;2023-11-18T15:53:09;7.60;99.90
11619;DHT22;5865;48.776;9.280;2023-11-18T15:55:39;7.60;99.90
11619;DHT22;5865;48.776;9.280;2023-11-18T15:58:08;7.60;99.90
11619;DHT22;5865;48.776;9.280;2023-11-18T16:00:35;7.60;99.90
11619;DHT22;5865;48.776;9.280;2023-11-18T16:03:02;7.60;99.90
11619;DHT22;5865;48.776;9.280;2023-11-18T16:05:34;7.70;99.90
11619;DHT22;5865;48.776;9.280;2023-11-18T16:08:02;7.60;99.90
11619;DHT22;5865;48.776;9.280;2023-11-18T16:10:29;7.60;99.90
11619;DHT22;5865;48.776;9.280;2023-11-18T16:12:57;7.50;99.90
11619;DHT22;5865;48.776;9.280;2023-11-18T16:15:25;7.60;99.90
11619;DHT22;5865;48.776;9.280;2023-11-18T16:17:53;7.60;99.90
11619;DHT22;5865;48.776;9.280;2023-11-18T16:20:21;7.60;99.90
11619;DHT22;5865;48.776;9.280;2023-11-18T16:22:51;7.60;99.90
11619;DHT22;5865;48.776;9.280;2023-11-18T16:25:20;7.60;99.90
11619;DHT22;5865;48.776;9.280;2023-11-18T16:27:49;7.70;99.90
11619;DHT22;5865;48.776;9.280;2023-11-18T16:30:17;7.60;99.90
11619;DHT22;5865;48.776;9.280;2023-11-18T16:32:49;7.60;99.90
11619;DHT22;5865;48.776;9.280;2023-11-18T16:37:44;7.50;99.90
11619;DHT22;5865;48.776;9.280;2023-11-18T16:40:13;7.50;99.90
11619;DHT22;5865;48.776;9.280;2023-11-18T16:42:41;7.40;99.90
11619;DHT22;5865;48.776;9.280;2023-11-18T16:45:10;7.50;99.90
11619;DHT22;5865;48.776;9.280;2023-11-18T16:47:38;7.40;99.90
11619;DHT22;5865;48.776;9.280;2023-11-18T16:50:05;7.50;99.90
11619;DHT22;5865;48.776;9.280;2023-11-18T16:52:33;7.50;99.90
11619;DHT22;5865;48.776;9.280;2023-11-18T16:55:00;7.50;99.90
11619;DHT22;5865;48.776;9.280;2023-11-18T16:57:29;7.50;99.90
11619;DHT22;5865;48.776;9.280;2023-11-18T16:59:56;7.50;99.90
11619;DHT22;5865;48.776;9.280;2023-11-18T17:02:23;7.50;99.90
11619;DHT22;5865;48.776;9.280;2023-11-18T17:04:50;7.60;99.90
11619;DHT22;5865;48.776;9.280;2023-11-18T17:07:17;7.60;99.90
11619;DHT22;5865;48.776;9.280;2023-11-18T17:09:44;7.60;99.90
11619;DHT22;5865;48.776;9.280;2023-11-18T17:12:11;7.60;99.90
11619;DHT22;5865;48.776;9.280;2023-11-18T17:14:40;7.60;99.90
11619;DHT22;5865;48.776;9.280;2023-11-18T17:17:07;7.50;99.90
11619;DHT22;5865;48.776;9.280;2023-11-18T17:19:34;7.60;99.90
11619;DHT22;5865;48.776;9.280;2023-11-18T17:22:02;7.50;99.90
11619;DHT22;5865;48.776;9.280;2023-11-18T17:24:30;7.50;99.90
11619;DHT22;5865;48.776;9.280;2023-11-18T17:26:57;7.70;99.90
11619;DHT22;5865;48.776;9.280;2023-11-18T17:29:25;7.60;99.90
11619;DHT22;5865;48.776;9.280;2023-11-18T17:31:54;7.60;99.90
11619;DHT22;5865;48.776;9.280;2023-11-18T17:36:49;7.60;99.90
11619;DHT22;5865;48.776;9.280;2023-11-18T17:39:17;7.60;99.90
11619;DHT22;5865;48.776;9.280;2023-11-18T17:41:44;7.70;99.90
11619;DHT22;5865;48.776;9.280;2023-11-18T17:44:11;7.70;99.90
11619;DHT22;5865;48.776;9.280;2023-11-18T17:46:38;7.60;99.90
11619;DHT22;5865;48.776;9.280;2023-11-18T17:49:06;7.70;99.90
11619;DHT22;5865;48.776;9.280;2023-11-18T17:51:34;7.70;99.90
11619;DHT22;5865;48.776;9.280;2023-11-18T17:54:01;7.70;99.90
11619;DHT22;5865;48.776;9.280;2023-11-18T17:56:28;7.60;99.90
11619;DHT22;5865;48.776;9.280;2023-11-18T17:58:55;7.60;99.90
11619;DHT22;5865;48.776;9.280;2023-11-18T18:01:23;7.60;99.90
11619;DHT22;5865;48.776;9.280;2023-11-18T18:03:50;7.60;99.90
11619;DHT22;5865;48.776;9.280;2023-11-18T18:06:18;7.60;99.90
11619;DHT22;5865;48.776;9.280;2023-11-18T18:08:45;7.50;99.90
11619;DHT22;5865;48.776;9.280;2023-11-18T18:11:12;7.50;99.90
11619;DHT22;5865;48.776;9.280;2023-11-18T18:13:39;7.40;99.90
11619;DHT22;5865;48.776;9.280;2023-11-18T18:16:07;7.40;99.90
11619;DHT22;5865;48.776;9.280;2023-11-18T18:18:35;7.40;99.90
11619;DHT22;5865;48.776;9.280;2023-11-18T18:21:02;7.40;99.90
11619;DHT22;5865;48.776;9.280;2023-11-18T18:23:30;7.40;99.90
11619;DHT22;5865;48.776;9.280;2023-11-18T18:25:59;7.50;99.90
11619;DHT22;5865;48.776;9.280;2023-11-18T18:28:25;7.50;99.90
11619;DHT22;5865;48.776;9.280;2023-11-18T18:30:52;7.50;99.90
11619;DHT22;5865;48.776;9.280;2023-11-18T18:33:20;7.50;99.90
11619;DHT22;5865;48.776;9.280;2023-11-18T18:35:47;7.50;99.90
11619;DHT22;5865;48.776;9.280;2023-11-18T18:38:14;7.40;99.90
11619;DHT22;5865;48.776;9.280;2023-11-18T18:40:42;7.40;99.90
11619;DHT22;5865;48.776;9.280;2023-11-18T18:43:10;7.40;99.90
11619;DHT22;5865;48.776;9.280;2023-11-18T18:45:37;7.40;99.90
11619;DHT22;5865;48.776;9.280;2023-11-18T18:48:04;7.40;99.90
11619;DHT22;5865;48.776;9.280;2023-11-18T18:50:31;7.40;99.90
11619;DHT22;5865;48.776;9.280;2023-11-18T18:53:00;7.40;99.90
11619;DHT22;5865;48.776;9.280;2023-11-18T18:57:56;7.20;99.90
11619;DHT22;5865;48.776;9.280;2023-11-18T19:00:23;7.20;99.90
11619;DHT22;5865;48.776;9.280;2023-11-18T19:02:50;7.20;99.90
11619;DHT22;5865;48.776;9.280;2023-11-18T19:05:18;7.20;99.90
11619;DHT22;5865;48.776;9.280;2023-11-18T19:07:49;7.10;99.90
11619;DHT22;5865;48.776;9.280;2023-11-18T19:10:16;7.10;99.90
11619;DHT22;5865;48.776;9.280;2023-11-18T19:12:43;7.10;99.90
11619;DHT22;5865;48.776;9.280;2023-11-18T19:15:12;7.10;99.90
11619;DHT22;5865;48.776;9.280;2023-11-18T19:17:42;7.10;99.90
11619;DHT22;5865;48.776;9.280;2023-11-18T19:20:11;7.00;99.90
11619;DHT22;5865;48.776;9.280;2023-11-18T19:22:40;7.10;99.90
11619;DHT22;5865;48.776;9.280;2023-11-18T19:25:08;7.10;99.90
11619;DHT22;5865;48.776;9.280;2023-11-18T19:27:35;7.00;99.90
11619;DHT22;5865;48.776;9.280;2023-11-18T19:30:02;7.00;99.90
11619;DHT22;5865;48.776;9.280;2023-11-18T19:32:31;7.00;99.90
11619;DHT22;5865;48.776;9.280;2023-11-18T19:34:58;6.90;99.90
11619;DHT22;5865;48.776;9.280;2023-11-18T19:37:25;6.90;99.90
11619;DHT22;5865;48.776;9.280;2023-11-18T19:39:53;6.90;99.90
11619;DHT22;5865;48.776;9.280;2023-11-18T19:42:20;6.80;99.90
11619;DHT22;5865;48.776;9.280;2023-11-18T19:44:47;6.80;99.90
11619;DHT22;5865;48.776;9.280;2023-11-18T19:47:15;6.80;99.90
11619;DHT22;5865;48.776;9.280;2023-11-18T19:49:45;6.80;99.90
11619;DHT22;5865;48.776;9.280;2023-11-18T19:52:13;6.70;99.90
11619;DHT22;5865;48.776;9.280;2023-11-18T19:54:40;6.80;99.90
11619;DHT22;5865;48.776;9.280;2023-11-18T19:57:10;6.80;99.90
11619;DHT22;5865;48.776;9.280;2023-11-18T19:59:36;6.80;99.90
11619;DHT22;5865;48.776;9.280;2023-11-18T20:02:04;6.90;99.90
11619;DHT22;5865;48.776;9.280;2023-11-18T20:04:31;6.90;99.90
11619;DHT22;5865;48.776;9.280;2023-11-18T20:07:00;6.90;99.90
11619;DHT22;5865;48.776;9.280;2023-11-18T20:09:28;6.90;99.90
11619;DHT22;5865;48.776;9.280;2023-11-18T20:11:57;6.90;99.90
11619;DHT22;5865;48.776;9.280;2023-11-18T20:14:24;6.90;99.90
11619;DHT22;5865;48.776;9.280;2023-11-18T20:16:51;6.90;99.90
11619;DHT22;5865;48.776;9.280;2023-11-18T20:19:20;6.90;99.90
11619;DHT22;5865;48.776;9.280;2023-11-18T20:21:47;6.90;99.90
11619;DHT22;5865;48.776;9.280;2023-11-18T20:24:16;7.00;99.90
11619;DHT22;5865;48.776;9.280;2023-11-18T20:26:43;7.00;99.90
11619;DHT22;5865;48.776;9.280;2023-11-18T20:29:10;7.10;99.90
11619;DHT22;5865;48.776;9.280;2023-11-18T20:31:37;7.10;99.90
11619;DHT22;5865;48.776;9.280;2023-11-18T20:34:04;7.10;99.90
11619;DHT22;5865;48.776;9.280;2023-11-18T20:36:31;7.20;99.90
11619;DHT22;5865;48.776;9.280;2023-11-18T20:38:58;7.10;99.90
11619;DHT22;5865;48.776;9.280;2023-11-18T20:41:26;7.10;99.90
11619;DHT22;5865;48.776;9.280;2023-11-18T20:43:54;7.20;99.90
11619;DHT22;5865;48.776;9.280;2023-11-18T20:46:21;7.20;99.90
11619;DHT22;5865;48.776;9.280;2023-11-18T20:48:48;7.30;99.90
11619;DHT22;5865;48.776;9.280;2023-11-18T20:51:15;7.30;99.90
11619;DHT22;5865;48.776;9.280;2023-11-18T20:53:42;7.40;99.90
11619;DHT22;5865;48.776;9.280;2023-11-18T20:56:09;7.40;99.90
11619;DHT22;5865;48.776;9.280;2023-11-18T20:58:38;7.40;99.90
11619;DHT22;5865;48.776;9.280;2023-11-18T21:01:10;7.50;99.90
11619;DHT22;5865;48.776;9.280;2023-11-18T21:03:41;7.50;99.90
11619;DHT22;5865;48.776;9.280;2023-11-18T21:06:08;7.40;99.90
11619;DHT22;5865;48.776;9.280;2023-11-18T21:08:35;7.40;99.90
11619;DHT22;5865;48.776;9.280;2023-11-18T21:11:02;7.40;99.90
11619;DHT22;5865;48.776;9.280;2023-11-18T21:13:29;7.50;99.90
11619;DHT22;5865;48.776;9.280;2023-11-18T21:16:01;7.60;99.90
11619;DHT22;5865;48.776;9.280;2023-11-18T21:18:28;7.70;99.90
11619;DHT22;5865;48.776;9.280;2023-11-18T21:20:55;7.80;99.90
11619;DHT22;5865;48.776;9.280;2023-11-18T21:23:22;7.80;99.90
11619;DHT22;5865;48.776;9.280;2023-11-18T21:25:49;7.90;99.90
11619;DHT22;5865;48.776;9.280;2023-11-18T21:28:16;7.70;99.90
11619;DHT22;5865;48.776;9.280;2023-11-18T21:30:43;7.80;99.90
11619;DHT22;5865;48.776;9.280;2023-11-18T21:33:11;7.70;99.90
11619;DHT22;5865;48.776;9.280;2023-11-18T21:35:38;7.60;99.90
11619;DHT22;5865;48.776;9.280;2023-11-18T21:38:05;7.60;99.90
11619;DHT22;5865;48.776;9.280;2023-11-18T21:40:32;7.70;99.90
11619;DHT22;5865;48.776;9.280;2023-11-18T21:43:00;7.80;99.90
11619;DHT22;5865;48.776;9.280;2023-11-18T21:45:27;7.90;99.90
11619;DHT22;5865;48.776;9.280;2023-11-18T21:47:55;8.10;99.90
11619;DHT22;5865;48.776;9.280;2023-11-18T21:50:26;8.10;99.90
11619;DHT22;5865;48.776;9.280;2023-11-18T21:52:53;8.10;99.90
11619;DHT22;5865;48.776;9.280;2023-11-18T21:55:20;8.20;99.90
11619;DHT22;5865;48.776;9.280;2023-11-18T21:57:47;8.20;99.90
11619;DHT22;5865;48.776;9.280;2023-11-18T22:00:14;8.20;99.90
11619;DHT22;5865;48.776;9.280;2023-11-18T22:40:03;7.80;99.90
11619;DHT22;5865;48.776;9.280;2023-11-18T22:59:27;7.70;99.90
11619;DHT22;5865;48.776;9.280;2023-11-18T23:10:04;7.70;99.90
11619;DHT22;5865;48.776;9.280;2023-11-18T23:12:45;7.80;99.90
11619;DHT22;5865;48.776;9.280;2023-11-18T23:15:35;7.80;99.90
11619;DHT22;5865;48.776;9.280;2023-11-18T23:23:14;7.90;99.90
11619;DHT22;5865;48.776;9.280;2023-11-18T23:37:37;7.90;99.90
11619;DHT22;5865;48.776;9.280;2023-11-18T23:40:18;7.90;99.90
